Time;durP1;ratioP1;P1;durP2;ratioP2;P2;SDS_P1;SDS_P2;PMS_P1;PMS_P2;Temp;Humidity;BMP_temperature;BMP_pressure;BME280_temperature;BME280_humidity;BME280_pressure;Samples;Min_cycle;Max_cycle;Signal;HPM_P1;HPM_P2
2022/12/26 00:00:13;;;;;;;31.70;18.75;;;;;;;3.92;94.23;100892.02;3295683;84;21092;-77
2022/12/26 00:05:04;;;;;;;30.75;18.95;;;;;;;3.93;94.23;100880.03;3257419;85;20957;-77
2022/12/26 00:09:56;;;;;;;34.78;21.52;;;;;;;3.94;94.15;100867.66;3221092;85;20970;-77
2022/12/26 00:14:47;;;;;;;35.78;20.80;;;;;;;3.94;94.25;100866.38;3244011;84;22341;-77
2022/12/26 00:19:39;;;;;;;28.62;18.70;;;;;;;3.94;94.18;100870.23;3326157;83;21579;-77
2022/12/26 00:24:31;;;;;;;27.93;18.65;;;;;;;3.91;94.07;100866.22;3273017;83;20977;-77
2022/12/26 00:29:22;;;;;;;29.23;19.00;;;;;;;3.90;94.00;100852.87;3290879;83;21016;-76
2022/12/26 00:34:13;;;;;;;31.60;20.40;;;;;;;3.89;94.08;100836.56;3284081;83;20951;-77
2022/12/26 00:39:04;;;;;;;33.08;21.05;;;;;;;3.86;93.99;100839.40;3279570;83;20939;-76
2022/12/26 00:43:55;;;;;;;29.50;19.35;;;;;;;3.84;94.02;100839.73;3335642;83;21668;-76
2022/12/26 00:48:48;;;;;;;34.23;21.52;;;;;;;3.84;94.22;100821.73;3349433;83;21445;-76
2022/12/26 00:53:40;;;;;;;33.23;20.85;;;;;;;3.85;94.25;100822.22;3298053;83;21058;-77
2022/12/26 00:58:31;;;;;;;29.42;20.10;;;;;;;3.84;94.06;100823.02;3342041;83;21042;-77
2022/12/26 01:03:22;;;;;;;35.00;20.97;;;;;;;3.83;94.02;100838.87;3345348;83;21146;-76
2022/12/26 01:08:13;;;;;;;30.25;19.02;;;;;;;3.84;94.19;100841.90;3355589;83;21484;-77
2022/12/26 01:13:04;;;;;;;35.23;19.67;;;;;;;3.83;94.02;100827.30;3341725;83;20967;-77
2022/12/26 01:17:58;;;;;;;36.08;23.18;;;;;;;3.86;94.31;100808.53;3321423;83;20972;-77
2022/12/26 01:22:49;;;;;;;37.80;24.45;;;;;;;3.89;94.43;100809.55;3314688;84;20983;-76
2022/12/26 01:27:40;;;;;;;36.80;23.85;;;;;;;3.93;94.51;100795.14;3321630;84;21180;-77
2022/12/26 01:32:31;;;;;;;36.40;24.63;;;;;;;3.96;94.49;100787.56;3230552;84;21003;-77
2022/12/26 01:37:23;;;;;;;38.65;24.77;;;;;;;3.96;94.31;100780.72;3289917;84;20928;-77
2022/12/26 01:42:19;;;;;;;41.13;26.07;;;;;;;3.98;94.30;100783.36;3288142;84;21070;-77
2022/12/26 01:47:11;;;;;;;39.37;26.43;;;;;;;3.96;94.28;100760.14;3306861;84;21387;-77
2022/12/26 01:52:08;;;;;;;45.10;28.45;;;;;;;3.98;94.38;100766.64;3298721;84;20978;-77
2022/12/26 01:57:03;;;;;;;42.27;27.60;;;;;;;3.99;94.40;100777.42;3311055;84;21043;-77
2022/12/26 02:01:55;;;;;;;37.95;24.70;;;;;;;3.98;94.37;100778.22;3330416;83;21020;-76
2022/12/26 02:06:49;;;;;;;41.13;27.73;;;;;;;4.00;94.52;100771.44;3323072;83;20951;-76
2022/12/26 02:11:44;;;;;;;35.00;25.17;;;;;;;4.02;94.43;100759.52;3292755;85;21525;-77
2022/12/26 02:16:37;;;;;;;40.33;26.45;;;;;;;4.01;94.32;100753.51;3302039;84;21367;-78
2022/12/26 02:21:40;;;;;;;35.10;26.33;;;;;;;4.01;94.37;100757.78;3307527;83;21040;-76
2022/12/26 02:26:54;;;;;;;39.27;26.70;;;;;;;4.01;94.39;100761.23;3313467;84;20991;-75
2022/12/26 02:32:17;;;;;;;38.20;24.37;;;;;;;4.04;94.46;100752.75;3293718;83;21644;-76
2022/12/26 02:37:35;;;;;;;40.15;26.15;;;;;;;4.05;94.50;100749.37;3335203;84;20998;-77
2022/12/26 02:42:51;;;;;;;;;;;;;;;4.05;94.52;100731.36;3238756;86;21958;-76
2022/12/26 02:48:11;;;;;;;32.53;21.40;;;;;;;4.04;94.50;100708.14;3237390;85;20518;-76
2022/12/26 03:14:52;;;;;;;35.25;23.80;;;;;;;4.00;94.66;100673.27;3219328;86;20960;-76
2022/12/26 03:19:58;;;;;;;34.48;22.62;;;;;;;3.99;94.68;100674.09;3236619;86;21058;-76
2022/12/26 03:35:13;;;;;;;34.55;21.25;;;;;;;4.04;94.66;100647.67;3191463;86;21221;-78
2022/12/26 04:44:08;;;;;;;28.77;18.90;;;;;;;4.02;94.76;100511.25;3233840;86;21015;-76
2022/12/26 04:54:17;;;;;;;27.77;20.50;;;;;;;4.04;94.78;100482.59;3205429;86;21282;-77
2022/12/26 04:59:08;;;;;;;27.17;19.65;;;;;;;4.04;94.74;100468.45;3183873;86;20957;-76
2022/12/26 05:14:22;;;;;;;25.90;19.73;;;;;;;4.06;94.69;100459.12;3195568;86;20980;-77
2022/12/26 05:29:40;;;;;;;27.00;19.02;;;;;;;4.04;94.83;100420.85;3218630;86;21425;-77
2022/12/26 05:34:31;;;;;;;27.10;19.27;;;;;;;4.03;94.89;100412.69;3129223;88;21722;-77
2022/12/26 05:39:22;;;;;;;21.55;17.15;;;;;;;4.04;94.95;100409.69;3162982;88;21060;-77
2022/12/26 05:44:13;;;;;;;24.07;17.62;;;;;;;4.03;94.99;100404.97;3213223;87;21055;-76
2022/12/26 05:49:05;;;;;;;21.87;16.85;;;;;;;4.02;94.92;100385.19;3223668;86;21533;-77
2022/12/26 05:53:58;;;;;;;22.52;17.37;;;;;;;4.04;94.98;100368.11;3239184;86;20995;-76
2022/12/26 05:58:59;;;;;;;19.40;15.18;;;;;;;4.05;95.00;100368.59;3231292;86;20896;-75
2022/12/26 06:03:57;;;;;;;21.07;16.45;;;;;;;4.04;94.98;100365.95;3200471;88;20912;-76
2022/12/26 06:08:50;;;;;;;20.43;16.32;;;;;;;4.04;95.15;100380.97;3215993;86;22134;-77
2022/12/26 06:13:42;;;;;;;18.87;15.00;;;;;;;4.04;95.13;100400.27;3184416;86;21710;-77
2022/12/26 06:18:34;;;;;;;17.23;12.53;;;;;;;4.06;95.22;100390.04;3155758;85;21540;-76
2022/12/26 06:23:25;;;;;;;19.00;14.70;;;;;;;4.06;95.42;100358.78;3309717;84;21453;-76
2022/12/26 06:28:16;;;;;;;21.02;15.28;;;;;;;4.08;95.23;100335.27;3308246;84;21008;-77
2022/12/26 06:33:07;;;;;;;15.83;12.88;;;;;;;4.07;95.20;100325.78;3299150;83;21139;-76
2022/12/26 06:37:58;;;;;;;16.13;12.53;;;;;;;4.08;95.20;100341.70;3220177;84;21399;-76
2022/12/26 06:42:49;;;;;;;16.42;12.75;;;;;;;4.10;95.29;100343.91;3345378;84;21220;-78
2022/12/26 06:47:40;;;;;;;13.35;10.85;;;;;;;4.12;95.27;100351.28;3325944;83;21470;-76
2022/12/26 06:52:31;;;;;;;16.85;12.82;;;;;;;4.13;95.28;100329.89;3345385;83;20983;-76
2022/12/26 06:57:22;;;;;;;12.20;10.28;;;;;;;4.15;95.29;100342.39;3345630;83;20983;-76
2022/12/26 07:02:13;;;;;;;15.30;12.60;;;;;;;4.16;95.27;100350.56;3291984;84;21066;-76
2022/12/26 07:07:04;;;;;;;17.17;13.53;;;;;;;4.16;95.28;100333.84;3330269;83;20977;-75
2022/12/26 07:11:55;;;;;;;16.75;12.03;;;;;;;4.17;95.29;100297.00;3327712;84;20963;-76
2022/12/26 07:16:46;;;;;;;15.40;13.08;;;;;;;4.18;95.32;100283.30;3308885;83;21193;-76
2022/12/26 07:21:38;;;;;;;15.40;12.58;;;;;;;4.19;95.40;100297.06;3286757;85;20979;-77
2022/12/26 07:26:29;;;;;;;16.95;12.80;;;;;;;4.19;95.39;100290.63;3245072;85;20967;-78
2022/12/26 07:31:21;;;;;;;16.40;11.80;;;;;;;4.20;95.42;100304.84;3260740;85;21717;-76
2022/12/26 07:36:12;;;;;;;15.78;11.90;;;;;;;4.24;95.45;100286.92;3292064;85;21050;-76
2022/12/26 07:41:56;;;;;;;16.62;12.47;;;;;;;4.26;95.39;100259.56;3280068;84;21046;-77
2022/12/26 07:45:57;;;;;;;13.78;11.70;;;;;;;4.30;95.41;100270.00;3274741;85;21297;-77
2022/12/26 07:50:49;;;;;;;14.73;12.13;;;;;;;4.33;95.64;100251.23;3270247;85;20983;-76
2022/12/26 07:55:40;;;;;;;13.78;10.93;;;;;;;4.35;95.40;100242.73;3225320;85;21149;-77
2022/12/26 08:00:31;;;;;;;15.53;11.95;;;;;;;4.40;95.48;100268.64;3266121;84;20963;-77
2022/12/26 08:05:22;;;;;;;14.60;12.00;;;;;;;4.41;95.39;100254.93;3255196;85;20971;-76
2022/12/26 08:10:16;;;;;;;15.23;11.88;;;;;;;4.47;95.32;100264.56;3302663;85;21448;-76
2022/12/26 08:15:10;;;;;;;15.15;12.37;;;;;;;4.47;95.27;100269.32;3243766;85;20987;-77
2022/12/26 08:20:02;;;;;;;16.67;13.13;;;;;;;4.48;95.26;100253.03;3244806;84;20987;-77
2022/12/26 08:24:53;;;;;;;15.05;11.43;;;;;;;4.53;95.33;100237.33;3292375;84;21018;-76
2022/12/26 08:29:44;;;;;;;15.00;12.10;;;;;;;4.60;95.31;100226.83;3328810;83;21189;-77
2022/12/26 08:34:35;;;;;;;16.27;12.47;;;;;;;4.65;95.33;100243.70;3297814;84;22424;-76
2022/12/26 08:39:26;;;;;;;17.62;12.28;;;;;;;4.69;95.28;100237.85;3300618;84;20954;-76
2022/12/26 08:44:17;;;;;;;17.20;12.55;;;;;;;4.74;95.20;100224.72;3251010;84;20993;-76
2022/12/26 08:49:09;;;;;;;18.40;11.63;;;;;;;4.81;95.18;100221.52;3297431;84;21466;-77
2022/12/26 08:54:00;;;;;;;16.37;12.43;;;;;;;4.85;95.08;100222.06;3266030;84;21297;-76
2022/12/26 08:58:53;;;;;;;16.80;12.68;;;;;;;4.87;95.18;100206.24;3279329;84;21121;-77
2022/12/26 09:03:44;;;;;;;16.48;12.60;;;;;;;4.86;95.08;100206.19;3299995;84;21035;-77
2022/12/26 09:08:36;;;;;;;15.30;11.63;;;;;;;4.85;95.23;100202.75;3323131;84;21564;-77
2022/12/26 09:13:27;;;;;;;17.00;12.65;;;;;;;4.92;95.32;100202.11;3308766;83;21445;-77
2022/12/26 09:18:18;;;;;;;17.82;11.75;;;;;;;4.99;95.26;100190.70;3301143;84;21148;-77
2022/12/26 09:23:10;;;;;;;16.75;12.35;;;;;;;5.11;94.99;100178.20;3308015;83;21154;-77
2022/12/26 09:28:01;;;;;;;19.52;14.25;;;;;;;5.13;94.98;100197.15;3361733;83;20963;-77
2022/12/26 09:32:52;;;;;;;18.07;14.03;;;;;;;5.14;95.10;100188.61;3314497;83;21272;-77
2022/12/26 09:37:44;;;;;;;18.12;14.60;;;;;;;5.13;95.21;100173.95;3360000;83;21046;-77
2022/12/26 09:42:47;;;;;;;18.80;14.58;;;;;;;5.08;95.28;100148.45;3283470;83;20928;-77
2022/12/26 09:48:23;;;;;;;17.65;14.28;;;;;;;5.05;95.44;100136.80;3366998;83;21378;-77
2022/12/26 09:53:25;;;;;;;16.50;13.18;;;;;;;5.12;95.58;100145.17;3369336;83;21571;-77
2022/12/26 09:58:33;;;;;;;20.05;13.53;;;;;;;5.30;95.38;100139.68;3339980;83;20988;-76
2022/12/26 10:03:24;;;;;;;;;;;;;;;5.35;95.40;100146.71;3338023;83;21496;-78
2022/12/26 10:08:30;;;;;;;18.70;14.20;;;;;;;5.32;95.44;100153.06;3354416;83;20471;-76
2022/12/26 10:13:44;;;;;;;18.92;14.85;;;;;;;5.36;95.64;100141.13;3368967;83;21472;-76
2022/12/26 10:19:17;;;;;;;19.45;14.58;;;;;;;5.40;95.67;100145.56;3182292;88;20990;-76
2022/12/26 10:24:22;;;;;;;19.75;14.68;;;;;;;5.48;95.76;100126.44;3183603;88;22103;-77
2022/12/26 10:29:25;;;;;;;20.55;14.60;;;;;;;5.61;95.84;100122.06;3170157;88;21681;-76
2022/12/26 10:34:28;;;;;;;17.40;14.30;;;;;;;5.72;95.87;100120.67;3160374;88;21951;-76
2022/12/26 10:39:37;;;;;;;19.15;14.33;;;;;;;5.84;95.79;100117.53;3130308;88;21078;-77
2022/12/26 10:44:28;;;;;;;18.82;14.53;;;;;;;6.01;95.63;100099.05;3149278;88;21491;-77
2022/12/26 10:49:23;;;;;;;21.12;15.55;;;;;;;6.18;95.62;100098.20;3147196;88;21102;-76
2022/12/26 10:54:18;;;;;;;20.05;15.95;;;;;;;6.26;95.57;100092.80;3290216;83;21073;-77
2022/12/26 10:59:24;;;;;;;21.62;15.85;;;;;;;6.38;95.51;100084.48;3341337;82;20998;-77
2022/12/26 11:04:24;;;;;;;24.72;17.15;;;;;;;6.45;95.71;100078.63;3342828;83;21507;-78
2022/12/26 11:09:38;;;;;;;21.25;15.20;;;;;;;6.68;95.89;100058.06;3288257;83;20975;-77
2022/12/26 11:14:39;;;;;;;20.75;16.75;;;;;;;6.68;95.89;100058.06;3359287;82;20965;-77
2022/12/26 11:19:35;;;;;;;21.70;14.35;;;;;;;6.77;95.97;100069.02;3299604;83;20962;-78
2022/12/26 11:24:26;;;;;;;23.15;15.78;;;;;;;6.73;96.10;100067.22;3302711;84;20983;-76
2022/12/26 11:29:20;;;;;;;20.77;15.63;;;;;;;6.75;96.11;100072.42;3343649;82;20975;-77
2022/12/26 11:34:17;;;;;;;20.25;16.07;;;;;;;6.77;96.29;100069.02;3333058;83;21006;-77
2022/12/26 11:39:25;;;;;;;21.35;16.85;;;;;;;6.78;96.41;100061.73;3350714;83;21035;-77
2022/12/26 11:44:30;;;;;;;22.58;16.27;;;;;;;6.81;96.36;100068.24;3361505;83;20952;-76
2022/12/26 11:49:29;;;;;;;20.97;17.15;;;;;;;6.85;96.45;100064.91;3336909;84;21029;-77
2022/12/26 11:54:34;;;;;;;22.15;16.50;;;;;;;6.86;96.55;100065.34;3291092;83;21224;-77
2022/12/26 11:59:25;;;;;;;24.25;17.20;;;;;;;6.90;96.42;100044.74;3306685;83;21625;-77
2022/12/26 12:04:16;;;;;;;21.02;16.87;;;;;;;6.95;96.44;100043.13;3235030;84;20984;-77
2022/12/26 12:09:37;;;;;;;22.87;17.07;;;;;;;7.12;96.40;100031.43;3335776;82;21046;-77
2022/12/26 12:15:04;;;;;;;22.65;16.87;;;;;;;7.24;96.25;100026.91;3303080;83;22078;-77
2022/12/26 12:20:03;;;;;;;26.33;20.35;;;;;;;7.37;96.00;100017.69;3310050;84;21096;-77
2022/12/26 12:25:35;;;;;;;25.27;20.05;;;;;;;7.39;96.04;100023.76;3372126;83;20970;-77
2022/12/26 12:30:44;;;;;;;24.30;18.75;;;;;;;7.37;95.98;100022.86;3344119;83;20963;-77
2022/12/26 12:36:06;;;;;;;26.40;20.77;;;;;;;7.38;96.02;100014.24;3348631;83;21002;-77
2022/12/26 12:41:12;;;;;;;28.50;22.13;;;;;;;7.16;96.21;100026.77;3350192;83;21076;-77
2022/12/26 12:46:21;;;;;;;27.00;20.70;;;;;;;7.16;96.21;100026.77;3364935;83;20984;-77
2022/12/26 12:51:34;;;;;;;25.65;20.80;;;;;;;7.16;96.84;100026.77;3264879;86;20955;-77
2022/12/26 12:56:37;;;;;;;30.57;20.92;;;;;;;7.11;96.72;100019.33;3232973;86;21034;-77
2022/12/26 13:01:33;;;;;;;26.60;20.80;;;;;;;7.14;96.69;100038.79;3261664;86;21510;-77
2022/12/26 13:06:38;;;;;;;21.87;18.48;;;;;;;7.17;97.25;100030.21;3250758;86;21538;-77
2022/12/26 13:11:48;;;;;;;19.82;16.32;;;;;;;7.20;97.57;100043.20;3255265;86;21066;-77
2022/12/26 13:16:53;;;;;;;23.75;17.20;;;;;;;7.34;97.69;100034.44;3257667;86;22153;-77
2022/12/26 13:21:46;;;;;;;22.65;18.40;;;;;;;7.46;97.96;100046.31;3250444;86;21520;-77
2022/12/26 13:26:41;;;;;;;18.25;15.78;;;;;;;7.55;97.77;100038.72;3265668;84;21465;-77
2022/12/26 13:31:35;;;;;;;20.85;15.65;;;;;;;7.66;98.31;100032.88;3326168;83;21561;-77
2022/12/26 13:36:46;;;;;;;20.23;17.17;;;;;;;7.73;98.20;100042.48;3283006;84;21077;-77
2022/12/26 13:47:02;;;;;;;21.55;15.18;;;;;;;7.75;98.12;100058.47;3326714;84;21039;-77
2022/12/26 13:52:13;;;;;;;19.48;13.93;;;;;;;7.77;98.23;100062.39;3227627;86;20963;-77
2022/12/26 13:57:28;;;;;;;22.35;16.23;;;;;;;7.77;98.49;100046.86;3258871;85;21285;-77
2022/12/26 14:03:04;;;;;;;18.37;14.35;;;;;;;7.73;98.17;100042.05;3275380;85;21582;-77
2022/12/26 14:08:40;;;;;;;19.00;16.20;;;;;;;7.70;98.21;100043.28;3254368;85;21513;-77
2022/12/26 14:13:46;;;;;;;17.62;14.15;;;;;;;7.59;97.93;100036.63;3278006;85;21021;-77
2022/12/26 14:19:00;;;;;;;15.72;13.68;;;;;;;7.58;98.14;100030.13;3319920;84;20992;-77
2022/12/26 14:24:21;;;;;;;16.67;14.78;;;;;;;7.53;98.13;100037.82;3258590;85;21022;-78
2022/12/26 14:29:29;;;;;;;17.07;14.18;;;;;;;7.49;98.25;100046.34;3208969;86;21560;-77
2022/12/26 14:34:54;;;;;;;17.25;14.20;;;;;;;7.45;98.17;100058.78;3236929;86;21026;-77
2022/12/26 14:40:19;;;;;;;19.50;15.18;;;;;;;7.37;98.56;100033.20;3226940;86;20939;-78
2022/12/26 14:45:21;;;;;;;18.60;14.80;;;;;;;7.39;98.36;100038.84;3239831;86;21022;-77
2022/12/26 14:50:35;;;;;;;17.32;14.20;;;;;;;7.33;98.35;100027.08;3213234;86;21002;-77
2022/12/26 14:55:47;;;;;;;23.92;14.95;;;;;;;7.22;98.13;100033.77;3189475;85;20968;-77
2022/12/26 15:00:41;;;;;;;19.98;13.20;;;;;;;7.14;98.38;100036.20;3219672;86;21025;-78
2022/12/26 15:05:46;;;;;;;17.98;14.28;;;;;;;7.06;98.26;100045.51;3284868;84;21908;-77
2022/12/26 15:11:16;;;;;;;20.37;15.45;;;;;;;7.06;98.43;100049.38;3270551;84;21086;-77
2022/12/26 15:16:31;;;;;;;20.75;16.57;;;;;;;7.09;98.39;100053.77;3313937;84;21036;-76
2022/12/26 15:22:13;;;;;;;22.02;16.95;;;;;;;7.09;99.03;100046.87;3104369;90;22028;-77
2022/12/26 15:27:43;;;;;;;24.37;17.02;;;;;;;7.09;99.03;100046.87;3092149;90;21133;-75
2022/12/26 15:32:55;;;;;;;18.35;15.80;;;;;;;7.10;98.87;100040.87;3045510;92;21102;-76
2022/12/26 15:38:00;;;;;;;24.32;16.30;;;;;;;7.12;98.81;100032.72;3013548;92;21039;-76
2022/12/26 15:43:28;;;;;;;20.55;16.48;;;;;;;7.11;98.80;100041.73;3045582;92;21055;-76
2022/12/26 15:48:42;;;;;;;28.80;20.17;;;;;;;7.07;98.94;100031.75;3040194;92;27092;-76
2022/12/26 15:53:57;;;;;;;23.45;18.35;;;;;;;7.14;99.46;100043.97;3019774;92;21106;-76
2022/12/26 15:59:02;;;;;;;25.60;19.92;;;;;;;7.20;99.35;100036.31;3087183;90;21054;-76
2022/12/26 16:03:55;;;;;;;25.37;19.73;;;;;;;7.21;99.44;100047.13;2985307;91;21035;-76
2022/12/26 16:09:02;;;;;;;25.30;18.30;;;;;;;7.22;99.39;100042.38;3109676;89;21039;-76
2022/12/26 16:14:02;;;;;;;23.80;18.57;;;;;;;7.24;99.45;100045.90;3125845;89;21121;-76
2022/12/26 16:18:54;;;;;;;28.67;18.80;;;;;;;7.18;99.22;100030.24;3132606;89;21090;-76
2022/12/26 16:23:48;;;;;;;24.60;19.42;;;;;;;7.24;99.21;100052.77;3093666;89;21039;-76
2022/12/26 16:28:41;;;;;;;21.35;18.65;;;;;;;7.24;99.31;100026.91;3049203;91;21053;-76
2022/12/26 16:33:42;;;;;;;23.22;17.65;;;;;;;7.25;99.33;100035.98;3084330;91;21088;-76
2022/12/26 16:38:33;;;;;;;23.83;17.73;;;;;;;7.23;99.05;100031.21;3102891;85;21068;-76
2022/12/26 16:43:33;;;;;;;23.10;18.57;;;;;;;7.20;99.14;100033.73;3269314;85;21511;-76
2022/12/26 16:48:28;;;;;;;25.70;18.12;;;;;;;7.20;99.14;100033.73;3274520;85;20966;-77
2022/12/26 16:53:25;;;;;;;23.98;17.82;;;;;;;7.18;99.10;100048.34;3267919;85;21504;-77
2022/12/26 16:58:27;;;;;;;24.75;18.70;;;;;;;7.17;99.05;100044.03;3255797;85;26749;-77
2022/12/26 17:03:23;;;;;;;30.37;18.20;;;;;;;7.15;99.06;100026.30;3296275;84;21300;-77
2022/12/26 17:08:15;;;;;;;26.07;16.93;;;;;;;7.15;99.09;100023.71;3308776;85;21061;-76
2022/12/26 17:13:08;;;;;;;31.93;18.67;;;;;;;7.13;98.92;100019.37;3296118;85;21032;-76
2022/12/26 17:18:22;;;;;;;19.98;17.42;;;;;;;7.11;99.05;100019.33;3228286;85;21525;-76
2022/12/26 17:23:38;;;;;;;24.40;19.25;;;;;;;7.09;98.96;100014.56;3290233;84;21094;-77
2022/12/26 17:28:29;;;;;;;24.50;17.85;;;;;;;7.08;99.02;100019.69;3302029;84;21533;-76
2022/12/26 17:33:27;;;;;;;23.75;20.17;;;;;;;7.09;99.13;100025.33;3320235;84;20959;-76
2022/12/26 17:38:25;;;;;;;25.35;21.17;;;;;;;7.11;99.07;100040.45;3305347;84;21739;-76
2022/12/26 17:43:30;;;;;;;25.90;21.35;;;;;;;7.12;99.11;100040.48;3299152;83;21030;-77
2022/12/26 17:48:22;;;;;;;28.52;19.42;;;;;;;7.13;99.14;100037.03;3342768;83;21556;-76
2022/12/26 17:53:42;;;;;;;25.00;19.57;;;;;;;7.12;99.00;100030.53;3317875;84;22171;-76
2022/12/26 17:58:34;;;;;;;26.02;19.87;;;;;;;7.12;99.41;100027.55;3302174;84;20995;-76
2022/12/26 18:03:25;;;;;;;23.57;19.30;;;;;;;7.11;99.38;100022.34;3277635;84;21508;-76
2022/12/26 18:08:33;;;;;;;26.35;20.40;;;;;;;7.19;99.77;100015.20;3309156;83;21695;-76
2022/12/26 18:13:26;;;;;;;26.05;19.77;;;;;;;7.18;99.61;100022.48;3332178;83;20994;-76
2022/12/26 18:18:32;;;;;;;26.12;19.82;;;;;;;7.19;99.53;100035.88;3305491;84;21094;-76
2022/12/26 18:23:23;;;;;;;25.55;19.12;;;;;;;7.21;99.67;100025.14;3318067;84;21089;-77
2022/12/26 18:28:17;;;;;;;24.37;19.27;;;;;;;7.19;99.51;100022.95;3301092;83;21042;-77
2022/12/26 18:33:15;;;;;;;23.42;18.50;;;;;;;7.25;99.86;100025.64;3311808;83;20999;-76
2022/12/26 18:38:06;;;;;;;27.20;20.97;;;;;;;7.25;99.67;100034.70;3254007;83;21011;-76
2022/12/26 18:42:59;;;;;;;30.37;21.87;;;;;;;7.24;99.41;100038.14;3284345;83;21011;-76
2022/12/26 18:47:50;;;;;;;28.55;21.55;;;;;;;7.28;99.75;100032.61;3276578;84;21054;-75
2022/12/26 18:52:41;;;;;;;26.95;21.42;;;;;;;7.28;99.69;100030.02;3288045;83;21015;-76
2022/12/26 18:57:51;;;;;;;29.90;22.82;;;;;;;7.28;99.58;100029.12;3268409;83;21493;-76
2022/12/26 19:02:41;;;;;;;29.55;21.50;;;;;;;7.29;99.67;100042.09;3317901;83;21007;-76
2022/12/26 19:07:37;;;;;;;24.75;20.08;;;;;;;7.30;99.72;100033.91;3255098;84;21151;-76
2022/12/26 19:12:32;;;;;;;25.92;20.25;;;;;;;7.35;100.00;100033.58;3309638;83;21560;-76
2022/12/26 19:17:29;;;;;;;24.92;19.92;;;;;;;7.36;99.87;100034.90;3283958;84;20984;-76
2022/12/26 19:22:25;;;;;;;23.67;17.73;;;;;;;7.36;99.85;100041.80;3272276;83;21191;-75
2022/12/26 19:27:24;;;;;;;26.05;19.17;;;;;;;7.41;100.00;100047.93;3268849;85;21740;-75
2022/12/26 19:32:20;;;;;;;24.40;19.48;;;;;;;7.43;100.00;100043.66;3242965;85;21049;-75
2022/12/26 19:37:18;;;;;;;32.63;23.27;;;;;;;7.42;100.00;100042.80;3203604;86;21518;-75
2022/12/26 19:42:11;;;;;;;24.65;19.40;;;;;;;7.42;99.88;100038.02;3208957;85;21041;-75
2022/12/26 19:47:04;;;;;;;23.25;17.80;;;;;;;7.48;100.00;100059.27;3263344;85;20952;-75
2022/12/26 19:51:55;;;;;;;25.57;18.73;;;;;;;7.54;100.00;100065.41;3220168;85;21013;-75
2022/12/26 19:57:05;;;;;;;24.77;18.57;;;;;;;7.58;100.00;100067.23;3208406;85;22381;-76
2022/12/26 20:01:55;;;;;;;25.03;18.43;;;;;;;7.61;100.00;100072.45;3266961;85;21496;-75
2022/12/26 20:06:48;;;;;;;17.00;13.80;;;;;;;7.69;100.00;100079.48;3229542;85;20965;-75
2022/12/26 20:11:44;;;;;;;21.87;16.95;;;;;;;7.71;100.00;100093.31;3214995;86;21606;-75
2022/12/26 20:16:35;;;;;;;19.40;15.23;;;;;;;7.77;100.00;100093.02;3251499;85;22056;-75
2022/12/26 20:21:28;;;;;;;18.37;14.28;;;;;;;7.82;100.00;100090.09;3225920;85;21001;-75
2022/12/26 20:26:24;;;;;;;16.40;13.53;;;;;;;7.91;100.00;100093.70;3307599;83;20945;-75
2022/12/26 20:31:20;;;;;;;15.83;13.55;;;;;;;7.96;100.00;100092.93;3337902;83;21358;-75
2022/12/26 20:36:22;;;;;;;17.12;13.43;;;;;;;8.01;100.00;100097.77;3313560;83;21018;-75
2022/12/26 20:41:13;;;;;;;14.23;12.68;;;;;;;8.09;100.00;100109.98;3309044;83;21460;-75
2022/12/26 20:46:07;;;;;;;14.60;12.50;;;;;;;8.15;100.00;100111.36;3319263;83;23223;-75
2022/12/26 20:51:03;;;;;;;16.40;13.68;;;;;;;8.17;100.00;100113.55;3274352;83;21022;-75
2022/12/26 20:55:58;;;;;;;15.93;14.33;;;;;;;8.16;100.00;100109.23;3303966;83;21002;-76
2022/12/26 21:01:01;;;;;;;15.95;13.50;;;;;;;8.17;100.00;100127.80;3295021;83;20987;-75
2022/12/26 21:05:53;;;;;;;17.70;12.78;;;;;;;8.14;100.00;100127.77;3303912;83;20990;-75
2022/12/26 21:10:45;;;;;;;16.37;13.32;;;;;;;8.12;100.00;100124.25;3285342;83;21109;-75
2022/12/26 21:15:37;;;;;;;14.93;13.13;;;;;;;8.11;100.00;100134.17;3303219;83;21579;-75
2022/12/26 21:20:29;;;;;;;15.60;12.55;;;;;;;8.10;100.00;100145.36;3295417;83;21026;-75
2022/12/26 21:25:21;;;;;;;15.68;11.80;;;;;;;8.09;100.00;100151.41;3289111;84;20990;-75
2022/12/26 21:30:14;;;;;;;16.55;11.83;;;;;;;8.10;100.00;100159.60;3299187;83;21408;-75
2022/12/26 21:35:06;;;;;;;14.63;12.73;;;;;;;8.11;100.00;100157.48;3299012;83;21496;-75
2022/12/26 21:39:57;;;;;;;16.25;12.70;;;;;;;8.14;100.00;100142.00;3279401;81;21055;-76
2022/12/26 21:44:48;;;;;;;14.78;12.85;;;;;;;8.13;100.00;100140.25;3308438;83;21066;-75
2022/12/26 21:49:39;;;;;;;22.27;13.72;;;;;;;8.12;100.00;100134.61;3308546;83;20979;-75
2022/12/26 21:59:55;;;;;;;14.63;12.58;;;;;;;8.08;100.00;100132.38;3308896;84;21101;-76
2022/12/26 22:04:46;;;;;;;17.42;13.50;;;;;;;8.08;100.00;100136.70;3308246;84;21003;-75
2022/12/26 22:09:37;;;;;;;16.52;14.00;;;;;;;8.05;100.00;100132.75;3256808;84;21628;-75
2022/12/26 22:14:28;;;;;;;15.13;12.70;;;;;;;7.98;100.00;100130.06;3297558;84;21013;-75
2022/12/26 22:19:23;;;;;;;16.90;14.20;;;;;;;7.91;100.00;100133.39;3264430;84;20987;-76
2022/12/26 22:24:13;;;;;;;16.67;14.23;;;;;;;7.87;100.00;100131.59;3293330;83;21536;-76
2022/12/26 22:29:04;;;;;;;15.53;12.53;;;;;;;7.87;100.00;100145.83;3291541;84;21590;-76
2022/12/26 22:34:00;;;;;;;15.25;12.80;;;;;;;7.88;100.00;100154.03;3249159;83;44386;-77
2022/12/26 22:38:53;;;;;;;14.40;11.88;;;;;;;7.89;100.00;100141.55;3293710;84;20967;-77
2022/12/26 22:43:46;;;;;;;14.75;12.55;;;;;;;7.82;100.00;100146.16;3323140;83;20983;-77
2022/12/26 22:48:37;;;;;;;13.05;11.65;;;;;;;7.70;100.00;100145.92;3268858;84;21025;-76
2022/12/26 22:53:29;;;;;;;14.55;11.85;;;;;;;7.65;100.00;100140.64;3306285;84;21496;-76
2022/12/26 22:58:20;;;;;;;14.25;12.05;;;;;;;7.58;100.00;100139.67;3299050;84;21066;-75
2022/12/26 23:03:13;;;;;;;14.50;11.10;;;;;;;7.51;100.00;100133.93;3277620;83;21037;-76
2022/12/26 23:08:06;;;;;;;12.75;11.45;;;;;;;7.39;100.00;100134.97;3298021;84;20991;-77
2022/12/26 23:12:58;;;;;;;15.45;12.33;;;;;;;7.28;100.00;100154.14;3277281;83;21565;-77
2022/12/26 23:23:05;;;;;;;14.78;11.63;;;;;;;7.16;100.00;100142.24;3320269;84;21533;-77
2022/12/26 23:33:05;;;;;;;13.85;10.70;;;;;;;6.94;100.00;100146.05;3311763;83;21019;-77
2022/12/26 23:37:56;;;;;;;15.95;10.72;;;;;;;6.81;100.00;100142.31;3255268;84;20967;-77
2022/12/26 23:42:47;;;;;;;12.25;11.15;;;;;;;6.81;100.00;100140.59;3266354;84;21009;-75
2022/12/26 23:47:41;;;;;;;22.73;10.00;;;;;;;6.74;100.00;100133.53;3269828;84;21604;-75
2022/12/26 23:52:34;;;;;;;12.30;10.25;;;;;;;6.71;100.00;100127.43;3306911;83;21037;-76
2022/12/26 23:57:25;;;;;;;13.08;11.50;;;;;;;6.72;100.00;100108.09;3276103;84;20990;-76
